Time;durP1;ratioP1;P1;durP2;ratioP2;P2;SDS_P1;SDS_P2;PMS_P1;PMS_P2;Temp;Humidity;BMP_temperature;BMP_pressure;BME280_temperature;BME280_humidity;BME280_pressure;Samples;Min_cycle;Max_cycle;Signal;HPM_P1;HPM_P2
2021/12/13 00:02:28;;;;;;;16.23;1.92;;;;;;;15.85;64.04;100930.78;4898860;29;20028;-89
2021/12/13 00:05:06;;;;;;;14.82;1.90;;;;;;;15.80;64.05;100927.69;4900559;29;20039;-89
2021/12/13 00:07:37;;;;;;;11.00;1.80;;;;;;;16.09;63.10;100927.09;4900407;29;20056;-89
2021/12/13 00:10:17;;;;;;;8.93;1.67;;;;;;;15.88;64.10;100928.88;4900144;29;20041;-89
2021/12/13 00:12:48;;;;;;;11.23;1.50;;;;;;;16.28;62.96;100923.75;4881884;29;20065;-89
2021/12/13 00:15:24;;;;;;;13.30;2.42;;;;;;;15.99;63.78;100921.72;4881467;29;20033;-90
2021/12/13 00:17:51;;;;;;;13.38;1.98;;;;;;;15.95;64.30;100938.81;4899143;29;20420;-89
2021/12/13 00:20:41;;;;;;;12.02;1.98;;;;;;;15.73;64.91;100925.69;4899214;29;20443;-90
2021/12/13 00:23:21;;;;;;;8.80;1.55;;;;;;;16.10;64.03;100926.13;4899503;29;20033;-89
2021/12/13 00:25:50;;;;;;;16.10;1.77;;;;;;;15.91;64.28;100934.75;4899656;29;20032;-89
2021/12/13 00:28:19;;;;;;;8.38;1.58;;;;;;;15.96;64.18;100937.03;4898513;29;20084;-90
2021/12/13 00:31:05;;;;;;;13.45;1.67;;;;;;;16.25;63.52;100932.81;4898754;29;20033;-89
2021/12/13 00:34:01;;;;;;;10.45;1.67;;;;;;;16.24;63.05;100938.25;4899429;29;20553;-89
2021/12/13 00:36:44;;;;;;;13.63;2.15;;;;;;;16.23;63.77;100945.34;4893039;29;20043;-89
2021/12/13 00:39:37;;;;;;;10.55;1.70;;;;;;;16.00;64.09;100949.06;4899980;29;20020;-89
2021/12/13 00:42:04;;;;;;;8.32;1.17;;;;;;;16.13;63.90;100962.13;4899139;29;20040;-89
2021/12/13 00:44:39;;;;;;;13.25;1.77;;;;;;;16.13;64.30;100960.31;4899831;29;20084;-90
2021/12/13 00:47:13;;;;;;;12.13;1.90;;;;;;;15.95;64.78;100951.25;4899561;29;20025;-90
2021/12/13 00:49:41;;;;;;;17.02;1.90;;;;;;;16.17;64.04;100960.91;4899018;29;20035;-90
2021/12/13 00:52:08;;;;;;;14.15;2.25;;;;;;;16.14;64.02;100943.47;4898757;29;20403;-89
2021/12/13 00:54:39;;;;;;;13.30;1.50;;;;;;;16.10;64.39;100946.50;4899159;29;20440;-90
2021/12/13 00:57:36;;;;;;;8.83;1.10;;;;;;;16.21;64.05;100942.00;4881007;29;20443;-90
2021/12/13 01:00:22;;;;;;;9.52;2.15;;;;;;;16.19;63.91;100949.22;4884092;29;20326;-89
2021/12/13 01:02:54;;;;;;;13.13;1.95;;;;;;;16.16;63.91;100938.88;4899422;29;20080;-89
2021/12/13 01:05:19;;;;;;;8.90;1.23;;;;;;;16.29;63.64;100937.84;4899246;29;20028;-89
2021/12/13 01:08:06;;;;;;;10.45;1.15;;;;;;;16.42;63.67;100943.81;4899796;29;20028;-89
2021/12/13 01:10:53;;;;;;;8.15;1.30;;;;;;;16.20;64.60;100929.69;4899164;29;20139;-90
2021/12/13 01:13:22;;;;;;;10.68;1.60;;;;;;;16.35;63.59;100927.59;4897965;29;20391;-90
2021/12/13 01:15:58;;;;;;;22.60;4.25;;;;;;;16.37;64.29;100935.38;4898647;29;20467;-90
2021/12/13 01:19:13;;;;;;;17.27;1.85;;;;;;;16.14;64.23;100935.50;4880821;29;20037;-90
2021/12/13 01:21:56;;;;;;;7.05;1.63;;;;;;;16.29;63.85;100932.53;4893553;29;20076;-89
2021/12/13 01:27:44;;;;;;;12.75;1.58;;;;;;;16.53;64.03;100917.25;4908774;29;20704;-90
2021/12/13 01:30:22;;;;;;;11.65;2.20;;;;;;;16.64;63.44;100925.09;4881914;29;20436;-89
2021/12/13 01:32:53;;;;;;;14.43;1.52;;;;;;;16.67;63.48;100921.38;4880203;29;20029;-89
2021/12/13 01:35:23;;;;;;;15.43;2.30;;;;;;;16.78;63.10;100933.69;4881137;29;20035;-89
2021/12/13 01:37:53;;;;;;;10.25;2.42;;;;;;;16.38;64.16;100937.91;4899055;29;20372;-89
2021/12/13 01:40:24;;;;;;;12.52;1.67;;;;;;;16.53;63.55;100930.50;4898446;29;20072;-89
2021/12/13 01:43:06;;;;;;;9.82;1.38;;;;;;;16.75;63.08;100933.97;4898332;29;20028;-89
2021/12/13 01:45:35;;;;;;;6.07;1.25;;;;;;;16.61;63.28;100930.69;4898399;29;20491;-89
2021/12/13 01:48:01;;;;;;;7.10;1.50;;;;;;;16.60;63.68;100926.34;4898903;29;20033;-89
2021/12/13 01:50:31;;;;;;;10.77;1.63;;;;;;;16.59;63.80;100929.97;4898515;29;20037;-90
2021/12/13 01:53:00;;;;;;;11.68;1.60;;;;;;;16.54;63.74;100940.09;4885968;29;20032;-89
2021/12/13 01:55:36;;;;;;;8.07;1.40;;;;;;;16.78;62.97;100928.38;4897455;29;20499;-89
2021/12/13 01:58:35;;;;;;;9.45;1.33;;;;;;;16.41;64.53;100932.38;4897651;29;20423;-89
2021/12/13 02:01:22;;;;;;;7.32;0.98;;;;;;;16.38;64.13;100942.38;4898268;29;20024;-89
2021/12/13 02:04:07;;;;;;;6.75;1.42;;;;;;;16.45;64.41;100938.25;4898476;29;20028;-89
2021/12/13 02:06:42;;;;;;;11.57;1.58;;;;;;;16.43;63.85;100940.19;4898365;29;20044;-89
2021/12/13 02:09:29;;;;;;;13.55;1.55;;;;;;;16.25;64.39;100943.41;4898498;29;20111;-90
2021/12/13 02:11:58;;;;;;;4.43;1.00;;;;;;;16.39;64.70;100949.34;4898084;29;20033;-90
2021/12/13 02:14:29;;;;;;;11.93;1.42;;;;;;;16.64;63.36;100942.81;4879415;29;20057;-90
2021/12/13 02:17:11;;;;;;;;;;;;;;;16.75;63.05;100955.19;4892269;29;20046;-89
2021/12/13 02:19:39;;;;;;;5.15;0.88;;;;;;;16.26;64.62;100958.34;4898014;29;19937;-89
2021/12/13 02:22:43;;;;;;;8.63;1.08;;;;;;;16.52;63.48;100950.00;4897927;29;20029;-89
2021/12/13 02:25:14;;;;;;;6.68;1.23;;;;;;;16.58;63.72;100946.84;4894858;29;20151;-89
2021/12/13 02:27:43;;;;;;;10.83;1.80;;;;;;;16.62;63.83;100953.56;4897500;29;20036;-90
2021/12/13 02:30:27;;;;;;;11.98;1.42;;;;;;;16.52;64.58;100959.78;4898392;29;20283;-89
2021/12/13 02:32:54;;;;;;;11.77;2.00;;;;;;;16.73;63.64;100952.66;4897326;29;20032;-89
2021/12/13 02:35:22;;;;;;;6.35;1.15;;;;;;;16.95;62.76;100946.38;4898162;29;20476;-89
2021/12/13 02:37:47;;;;;;;8.70;1.23;;;;;;;16.90;63.48;100943.25;4898173;29;20032;-90
2021/12/13 02:40:17;;;;;;;12.27;1.50;;;;;;;16.49;64.35;100942.34;4898271;29;20032;-90
2021/12/13 02:42:43;;;;;;;9.20;1.63;;;;;;;16.32;65.28;100949.03;4897648;29;20447;-89
2021/12/13 02:45:17;;;;;;;11.52;1.52;;;;;;;16.59;64.21;100947.69;4897460;29;20115;-89
2021/12/13 02:47:48;;;;;;;9.43;1.27;;;;;;;16.56;64.10;100953.25;4897710;29;20036;-89
2021/12/13 02:50:28;;;;;;;10.00;1.70;;;;;;;16.50;64.85;100962.56;4897868;29;20040;-90
2021/12/13 02:52:54;;;;;;;9.50;1.55;;;;;;;16.42;64.47;100955.25;4886858;29;20044;-89
2021/12/13 02:55:24;;;;;;;9.77;1.88;;;;;;;16.27;65.25;100953.88;4897536;29;20028;-89
2021/12/13 02:57:52;;;;;;;17.23;1.90;;;;;;;16.18;65.70;100952.84;4897440;29;20541;-89
2021/12/13 03:00:20;;;;;;;12.65;2.00;;;;;;;16.45;64.66;100954.16;4897270;29;20871;-89
2021/12/13 03:02:50;;;;;;;11.68;1.40;;;;;;;16.71;63.95;100959.91;4897422;29;20387;-88
2021/12/13 03:05:33;;;;;;;14.55;2.30;;;;;;;16.42;64.47;100954.41;4896786;29;20077;-89
2021/12/13 03:08:06;;;;;;;11.75;1.52;;;;;;;16.52;64.76;100957.97;4897677;29;20035;-89
2021/12/13 03:10:47;;;;;;;8.25;1.13;;;;;;;16.72;64.27;100958.09;4897415;29;20039;-89
2021/12/13 03:13:12;;;;;;;6.95;1.35;;;;;;;16.85;63.59;100951.63;4897338;29;20436;-89
2021/12/13 03:15:38;;;;;;;9.93;1.70;;;;;;;16.81;64.02;100947.56;4897220;29;20024;-89
2021/12/13 03:18:18;;;;;;;14.45;1.92;;;;;;;16.79;63.59;100951.28;4897155;29;20390;-89
2021/12/13 03:20:56;;;;;;;9.00;1.90;;;;;;;16.60;64.36;100942.25;4896592;29;20029;-89
2021/12/13 03:23:49;;;;;;;5.85;1.08;;;;;;;16.68;64.08;100949.53;4896971;29;20120;-89
2021/12/13 03:26:26;;;;;;;12.60;1.58;;;;;;;16.51;63.83;100952.78;4887560;29;20041;-89
2021/12/13 03:29:01;;;;;;;8.77;1.25;;;;;;;16.66;63.84;100947.00;4896896;29;20028;-89
2021/12/13 03:31:34;;;;;;;10.07;1.70;;;;;;;16.15;65.29;100946.94;4896722;29;20033;-89
2021/12/13 03:34:24;;;;;;;14.38;2.60;;;;;;;15.91;65.42;100945.34;4897489;29;20029;-91
2021/12/13 03:37:06;;;;;;;13.13;1.83;;;;;;;16.38;64.10;100939.72;4898509;29;20075;-89
2021/12/13 03:39:57;;;;;;;6.63;1.40;;;;;;;16.60;63.83;100944.88;4901162;29;20119;-89
2021/12/13 03:42:34;;;;;;;13.95;2.15;;;;;;;16.62;63.45;100934.16;4900594;29;20088;-89
2021/12/13 03:45:06;;;;;;;7.30;1.08;;;;;;;16.34;64.05;100935.66;4900828;29;20052;-89
2021/12/13 03:47:38;;;;;;;15.23;1.85;;;;;;;16.05;65.30;100928.31;4901304;29;20462;-90
2021/12/13 03:50:09;;;;;;;;;;;;;;;16.26;64.66;100931.84;4901168;29;20046;-89
2021/12/13 03:52:38;;;;;;;9.00;1.40;;;;;;;16.70;62.83;100928.22;4900661;29;19927;-89
2021/12/13 03:55:05;;;;;;;13.82;1.17;;;;;;;16.75;63.15;100947.22;4900584;29;20021;-89
2021/12/13 03:57:32;;;;;;;12.63;3.15;;;;;;;16.72;62.73;100945.66;4900546;29;20037;-89
2021/12/13 03:59:59;;;;;;;13.07;1.33;;;;;;;16.81;62.76;100944.03;4900667;29;20021;-89
2021/12/13 04:02:34;;;;;;;8.45;1.30;;;;;;;16.69;63.42;100940.63;4900635;29;20033;-89
2021/12/13 04:05:08;;;;;;;6.68;1.40;;;;;;;16.41;64.07;100953.56;4899770;29;20424;-89
2021/12/13 04:07:41;;;;;;;9.50;1.30;;;;;;;16.51;63.68;100948.34;4900075;29;20036;-89
2021/12/13 04:10:29;;;;;;;8.88;1.45;;;;;;;16.77;63.13;100951.41;4899839;29;20039;-90
2021/12/13 04:12:57;;;;;;;4.95;1.33;;;;;;;16.43;64.22;100945.50;4881267;29;20089;-89
2021/12/13 04:15:34;;;;;;;9.00;1.75;;;;;;;16.41;64.23;100942.09;4893293;29;20031;-90
2021/12/13 04:18:16;;;;;;;9.75;1.58;;;;;;;16.10;65.33;100944.69;4900164;29;20373;-90
2021/12/13 04:20:44;;;;;;;7.45;1.33;;;;;;;16.60;63.70;100947.53;4894661;29;20111;-89
2021/12/13 04:23:16;;;;;;;8.75;1.65;;;;;;;16.69;63.32;100948.59;4899965;29;20035;-90
2021/12/13 04:25:44;;;;;;;7.10;1.45;;;;;;;16.82;62.82;100945.75;4899580;29;20021;-89
2021/12/13 04:28:29;;;;;;;13.55;1.65;;;;;;;16.15;64.74;100945.16;4899088;29;20028;-89
2021/12/13 04:30:58;;;;;;;13.45;1.73;;;;;;;16.26;63.91;100939.78;4899697;29;20479;-90
2021/12/13 04:33:34;;;;;;;13.18;1.40;;;;;;;16.60;63.25;100949.34;4899576;29;20025;-89
2021/12/13 04:36:05;;;;;;;11.18;1.33;;;;;;;16.46;63.30;100950.53;4899810;29;20487;-90
2021/12/13 04:38:50;;;;;;;11.70;1.87;;;;;;;16.74;63.40;100956.97;4900379;29;20063;-89
2021/12/13 04:41:32;;;;;;;8.63;1.60;;;;;;;16.59;63.90;100967.09;4899973;29;20069;-90
2021/12/13 04:44:08;;;;;;;13.10;2.40;;;;;;;16.51;64.13;100955.44;4900153;29;20063;-89
2021/12/13 04:46:36;;;;;;;12.02;1.63;;;;;;;16.45;64.16;100959.47;4899427;29;20453;-89
2021/12/13 04:49:24;;;;;;;11.10;1.55;;;;;;;16.61;63.89;100956.34;4899209;29;20159;-89
2021/12/13 04:52:00;;;;;;;12.52;1.80;;;;;;;16.43;64.31;100954.28;4899800;29;20447;-90
2021/12/13 04:54:31;;;;;;;10.45;1.23;;;;;;;16.20;64.83;100945.59;4899236;29;20080;-90
2021/12/13 04:56:59;;;;;;;16.20;1.92;;;;;;;16.08;65.54;100954.56;4899812;29;20064;-89
2021/12/13 04:59:26;;;;;;;12.30;1.65;;;;;;;16.45;64.45;100948.88;4899889;29;20028;-89
2021/12/13 05:01:55;;;;;;;15.63;2.20;;;;;;;16.57;63.41;100958.41;4900221;29;20120;-90
2021/12/13 05:04:22;;;;;;;9.70;1.48;;;;;;;16.47;64.02;100952.22;4898581;29;20035;-89
2021/12/13 05:06:50;;;;;;;9.70;2.47;;;;;;;16.23;64.53;100945.34;4898739;29;20040;-89
2021/12/13 05:09:18;;;;;;;9.63;1.95;;;;;;;16.12;65.01;100950.69;4895608;29;20092;-89
2021/12/13 05:11:48;;;;;;;12.50;2.38;;;;;;;16.49;64.29;100950.28;4900139;29;20028;-90
2021/12/13 05:14:15;;;;;;;14.52;2.25;;;;;;;16.35;64.50;100947.94;4899520;29;20123;-89
2021/12/13 05:16:49;;;;;;;12.65;2.47;;;;;;;16.58;63.86;100946.00;4899740;29;20172;-89
2021/12/13 05:19:28;;;;;;;10.75;1.52;;;;;;;16.54;64.11;100944.59;4898864;29;20083;-89
2021/12/13 05:21:55;;;;;;;9.00;1.55;;;;;;;16.42;64.42;100930.56;4899611;29;20395;-89
2021/12/13 05:24:26;;;;;;;14.50;2.40;;;;;;;16.11;65.19;100941.06;4899193;29;20048;-90
2021/12/13 05:26:51;;;;;;;6.22;1.23;;;;;;;16.24;64.40;100944.38;4898339;29;20060;-89
2021/12/13 05:29:33;;;;;;;9.15;1.42;;;;;;;16.38;64.76;100937.09;4898775;29;20108;-90
2021/12/13 05:32:16;;;;;;;11.52;1.67;;;;;;;15.96;65.58;100939.69;4898759;29;20036;-89
2021/12/13 05:34:44;;;;;;;11.55;1.67;;;;;;;15.96;65.76;100948.47;4898829;29;20032;-89
2021/12/13 05:37:10;;;;;;;14.02;1.63;;;;;;;15.72;66.50;100945.13;4899123;29;20032;-89
2021/12/13 05:39:37;;;;;;;5.55;1.60;;;;;;;15.95;65.42;100936.19;4898783;29;20032;-90
2021/12/13 05:42:11;;;;;;;12.68;1.52;;;;;;;15.54;67.46;100958.03;4898102;29;20032;-90
2021/12/13 05:44:43;;;;;;;7.38;1.30;;;;;;;15.76;66.80;100951.91;4898565;29;20387;-89
2021/12/13 05:47:21;;;;;;;;;;;;;;;15.95;65.89;100956.53;4898287;29;20032;-89
2021/12/13 05:49:48;;;;;;;11.95;1.70;;;;;;;16.03;65.75;100954.09;4899128;29;19915;-90
2021/12/13 05:52:17;;;;;;;10.82;1.67;;;;;;;15.99;65.56;100950.00;4898444;29;20141;-90
2021/12/13 05:54:53;;;;;;;15.93;2.30;;;;;;;16.21;64.95;100942.00;4898705;29;20024;-90
2021/12/13 05:57:29;;;;;;;9.65;1.83;;;;;;;15.82;66.06;100951.41;4889606;29;20033;-89
2021/12/13 05:59:54;;;;;;;14.02;1.70;;;;;;;15.94;64.85;100950.41;4884106;29;20044;-90
2021/12/13 06:02:58;;;;;;;8.70;1.58;;;;;;;15.52;66.44;100944.09;4898823;29;20029;-89
2021/12/13 06:05:26;;;;;;;5.88;1.33;;;;;;;15.37;67.19;100952.31;4898650;29;20028;-90
2021/12/13 06:07:59;;;;;;;5.22;1.48;;;;;;;15.65;66.52;100950.09;4899032;29;20080;-89
2021/12/13 06:10:57;;;;;;;13.85;1.90;;;;;;;15.62;66.61;100972.38;4898459;29;20062;-89
2021/12/13 06:13:46;;;;;;;11.85;1.52;;;;;;;15.52;67.23;100981.16;4893618;29;20087;-89
2021/12/13 06:16:23;;;;;;;12.38;1.83;;;;;;;15.22;68.36;100983.44;4898638;29;20028;-89
2021/12/13 06:19:05;;;;;;;12.75;1.60;;;;;;;15.79;66.61;100988.72;4898461;29;20071;-89
2021/12/13 06:21:47;;;;;;;3.65;1.00;;;;;;;15.92;66.25;100991.22;4898329;29;20051;-89
2021/12/13 06:24:13;;;;;;;9.13;1.60;;;;;;;15.99;66.36;100993.22;4879454;29;20036;-90
2021/12/13 06:26:40;;;;;;;11.05;1.70;;;;;;;15.82;66.57;100999.91;4889951;29;20499;-90
2021/12/13 06:29:08;;;;;;;8.23;1.30;;;;;;;16.02;65.92;101002.75;4898011;29;20036;-89
2021/12/13 06:31:39;;;;;;;4.97;1.02;;;;;;;15.72;67.38;101003.38;4897905;29;20041;-90
2021/12/13 06:34:08;;;;;;;9.80;1.52;;;;;;;15.80;66.39;101001.84;4896981;29;20505;-90
2021/12/13 06:36:42;;;;;;;7.70;1.23;;;;;;;15.49;68.22;101010.50;4898149;29;20043;-89
2021/12/13 06:39:30;;;;;;;13.60;1.45;;;;;;;15.37;68.77;101005.22;4897921;29;20032;-89
2021/12/13 06:42:03;;;;;;;11.82;1.38;;;;;;;15.49;68.23;101003.41;4897557;29;20096;-89
2021/12/13 06:44:40;;;;;;;11.73;1.80;;;;;;;15.92;67.01;100999.19;4897558;29;20033;-89
2021/12/13 06:47:18;;;;;;;6.32;1.27;;;;;;;15.50;68.12;101004.25;4898114;29;20061;-90
2021/12/13 06:49:45;;;;;;;13.73;2.42;;;;;;;15.54;67.91;101008.31;4897803;29;20055;-89
2021/12/13 06:52:13;;;;;;;8.88;1.52;;;;;;;15.49;68.26;101013.16;4897873;29;20063;-90
2021/12/13 06:54:38;;;;;;;13.35;2.28;;;;;;;15.44;67.96;101018.78;4897910;29;20460;-90
2021/12/13 06:57:09;;;;;;;7.50;1.20;;;;;;;15.82;67.33;101002.56;4897360;29;20060;-90
2021/12/13 06:59:52;;;;;;;7.38;1.35;;;;;;;15.71;67.95;101005.19;4897729;29;20398;-90
2021/12/13 07:02:21;;;;;;;8.10;1.30;;;;;;;15.70;67.18;101011.47;4897508;29;20119;-90
2021/12/13 07:04:49;;;;;;;6.45;1.30;;;;;;;15.47;68.02;101019.41;4897797;29;20099;-89
2021/12/13 07:07:17;;;;;;;14.05;2.35;;;;;;;15.47;67.99;101027.34;4897799;29;20033;-90
2021/12/13 07:09:55;;;;;;;7.45;1.75;;;;;;;15.52;67.98;101031.44;4897954;29;20036;-90
2021/12/13 07:12:23;;;;;;;9.75;1.60;;;;;;;15.57;67.65;101027.47;4900263;29;20376;-90
2021/12/13 07:14:49;;;;;;;14.02;1.60;;;;;;;15.76;66.93;101032.19;4901621;29;20364;-89
2021/12/13 07:17:17;;;;;;;8.10;1.60;;;;;;;15.75;66.92;101030.47;4901701;29;20084;-90
2021/12/13 07:19:45;;;;;;;8.88;1.40;;;;;;;16.09;65.81;101032.22;4900943;29;20498;-89
2021/12/13 07:22:18;;;;;;;16.38;2.58;;;;;;;15.88;66.25;101038.28;4900931;29;20372;-89
2021/12/13 07:24:51;;;;;;;6.35;1.33;;;;;;;15.92;66.22;101047.69;4901639;29;20586;-90
2021/12/13 07:27:29;;;;;;;11.20;1.55;;;;;;;15.93;65.37;101052.00;4900699;29;20071;-89
2021/12/13 07:30:24;;;;;;;8.30;1.40;;;;;;;15.89;65.83;101057.66;4901170;29;20479;-90
2021/12/13 07:32:57;;;;;;;8.95;1.38;;;;;;;15.98;65.71;101059.59;4898391;29;20055;-90
2021/12/13 07:35:53;;;;;;;4.18;1.10;;;;;;;16.08;65.51;101065.00;4901253;29;20036;-90
2021/12/13 07:38:18;;;;;;;8.50;1.40;;;;;;;16.01;65.77;101083.16;4894790;29;20503;-91
2021/12/13 07:40:48;;;;;;;7.78;1.27;;;;;;;16.10;65.79;101079.78;4901142;29;20104;-91
2021/12/13 07:43:30;;;;;;;5.68;1.40;;;;;;;16.13;64.90;101076.88;4899251;29;20060;-91
2021/12/13 07:46:19;;;;;;;7.30;0.98;;;;;;;15.81;66.56;101090.88;4900298;29;20452;-91
2021/12/13 07:48:45;;;;;;;6.93;1.30;;;;;;;15.72;66.33;101085.44;4899568;29;20436;-90
2021/12/13 07:51:17;;;;;;;4.32;0.85;;;;;;;15.84;66.49;101081.88;4901341;29;20036;-92
2021/12/13 07:54:04;;;;;;;5.03;1.13;;;;;;;15.64;67.08;101086.91;4902283;29;20041;-96
2021/12/13 07:56:33;;;;;;;8.63;1.13;;;;;;;15.63;67.36;101090.50;4902992;29;20120;-91
2021/12/13 07:59:02;;;;;;;4.78;1.00;;;;;;;15.69;66.54;101093.63;4899737;29;20111;-92
2021/12/13 08:01:30;;;;;;;7.43;1.77;;;;;;;15.72;66.67;101096.91;4900726;29;20037;-89
2021/12/13 08:03:59;;;;;;;2.97;0.90;;;;;;;15.88;66.40;101087.75;4900158;29;20108;-89
2021/12/13 08:06:32;;;;;;;2.20;0.98;;;;;;;15.65;67.46;101079.78;4900595;29;20111;-89
2021/12/13 08:09:02;;;;;;;8.65;1.98;;;;;;;16.08;65.69;101087.00;4888243;29;20543;-94
2021/12/13 08:11:39;;;;;;;6.40;0.68;;;;;;;16.07;65.77;101090.63;4900550;29;20028;-93
2021/12/13 08:14:06;;;;;;;3.38;1.00;;;;;;;15.82;66.81;101102.34;4901113;29;20044;-91
2021/12/13 08:16:35;;;;;;;4.55;0.82;;;;;;;15.96;66.56;101102.09;4900620;29;20028;-90
2021/12/13 08:19:13;;;;;;;4.60;0.60;;;;;;;15.77;67.10;101100.03;4897947;29;20052;-88
2021/12/13 08:21:44;;;;;;;3.08;0.60;;;;;;;15.90;66.58;101105.22;4898799;29;20024;-90
2021/12/13 08:24:19;;;;;;;5.50;0.70;;;;;;;15.79;66.52;101111.34;4897914;29;20032;-90
2021/12/13 08:26:45;;;;;;;4.90;0.90;;;;;;;16.02;66.12;101112.19;4898669;29;20283;-92
2021/12/13 08:29:21;;;;;;;2.20;0.60;;;;;;;15.90;65.86;101117.63;4898359;29;20047;-91
2021/12/13 08:31:51;;;;;;;2.63;0.45;;;;;;;15.95;65.65;101115.44;4900168;29;20032;-90
2021/12/13 08:34:27;;;;;;;2.67;0.65;;;;;;;15.86;66.30;101123.16;4899751;29;20021;-91
2021/12/13 08:36:53;;;;;;;6.47;1.00;;;;;;;16.07;65.16;101130.34;4899975;29;20083;-90
2021/12/13 08:39:29;;;;;;;1.58;0.52;;;;;;;15.94;65.42;101129.66;4899328;29;20005;-89
2021/12/13 08:41:58;;;;;;;3.83;0.60;;;;;;;15.88;65.51;101135.41;4897585;29;20032;-90
2021/12/13 08:44:38;;;;;;;1.80;0.60;;;;;;;15.72;65.96;101133.09;4897277;29;20028;-90
2021/12/13 08:47:14;;;;;;;2.45;0.73;;;;;;;16.21;64.10;101132.75;4900198;29;20086;-91
2021/12/13 08:49:48;;;;;;;2.15;0.43;;;;;;;16.30;64.10;101136.47;4899723;29;20023;-91
2021/12/13 08:52:13;;;;;;;2.35;0.85;;;;;;;16.25;64.48;101139.50;4899063;29;20016;-95
2021/12/13 08:54:53;;;;;;;3.30;0.55;;;;;;;16.18;64.70;101158.66;4898397;29;20527;-94
2021/12/13 08:57:45;;;;;;;3.03;0.50;;;;;;;16.36;64.38;101151.88;4895255;29;20028;-92
2021/12/13 09:00:13;;;;;;;;;;;;;;;16.37;64.30;101147.41;4899477;29;20088;-92
2021/12/13 09:02:44;;;;;;;1.90;0.60;;;;;;;16.32;64.50;101147.78;4900169;29;19970;-91
2021/12/13 09:05:14;;;;;;;3.10;0.75;;;;;;;16.16;64.20;101148.16;4898828;29;20021;-89
2021/12/13 09:08:00;;;;;;;3.40;0.70;;;;;;;16.31;64.30;101142.59;4898456;29;20068;-88
2021/12/13 09:10:49;;;;;;;3.15;0.90;;;;;;;16.31;64.65;101137.31;4895206;29;20431;-89
2021/12/13 09:13:19;;;;;;;3.15;0.75;;;;;;;16.21;63.73;101135.41;4898745;29;20021;-89
2021/12/13 09:15:48;;;;;;;4.32;0.77;;;;;;;16.11;64.42;101142.38;4898498;29;20025;-90
2021/12/13 09:18:21;;;;;;;4.55;0.68;;;;;;;16.19;64.87;101145.28;4898531;29;20052;-90
2021/12/13 09:20:51;;;;;;;4.60;0.82;;;;;;;16.14;65.14;101146.63;4898972;29;20032;-92
2021/12/13 09:23:22;;;;;;;7.60;0.70;;;;;;;16.42;64.12;101148.72;4898895;29;20072;-89
2021/12/13 09:25:50;;;;;;;3.58;0.70;;;;;;;16.10;65.28;101146.00;4899271;29;20028;-89
2021/12/13 09:28:33;;;;;;;4.13;0.95;;;;;;;16.50;64.11;101141.97;4898963;29;20043;-91
2021/12/13 09:31:35;;;;;;;8.15;1.33;;;;;;;16.17;65.07;101138.41;4896899;29;20057;-89
2021/12/13 09:34:21;;;;;;;5.60;1.33;;;;;;;16.36;64.67;101156.34;4893220;29;20048;-88
2021/12/13 09:36:51;;;;;;;5.13;1.27;;;;;;;16.55;64.21;101156.53;4898481;29;20117;-88
2021/12/13 09:39:24;;;;;;;3.22;0.70;;;;;;;16.62;64.03;101152.41;4892801;29;20029;-88
2021/12/13 09:42:01;;;;;;;3.20;0.63;;;;;;;16.54;64.35;101160.13;4898503;29;20036;-89
2021/12/13 09:44:37;;;;;;;6.47;0.82;;;;;;;16.28;64.72;101159.59;4898224;29;20020;-90
2021/12/13 09:47:03;;;;;;;2.85;1.13;;;;;;;16.13;65.16;101161.66;4897741;29;20111;-90
2021/12/13 09:49:34;;;;;;;3.03;0.75;;;;;;;16.39;64.44;101167.53;4898209;29;20539;-91
2021/12/13 09:52:11;;;;;;;4.45;0.80;;;;;;;16.51;64.11;101165.72;4888963;29;20025;-91
2021/12/13 09:54:49;;;;;;;6.95;0.60;;;;;;;16.71;62.76;101172.03;4896696;29;20033;-90
2021/12/13 09:57:19;;;;;;;4.03;0.98;;;;;;;16.49;63.91;101164.13;4897997;29;20452;-91
2021/12/13 09:59:52;;;;;;;5.22;1.00;;;;;;;16.62;63.24;101173.59;4893456;29;20039;-95
2021/12/13 10:02:41;;;;;;;3.35;0.60;;;;;;;16.89;63.18;101174.19;4898990;29;20028;-91
2021/12/13 10:05:10;;;;;;;2.45;0.60;;;;;;;16.61;63.74;101177.25;4897703;29;20476;-92
2021/12/13 10:07:39;;;;;;;2.63;0.60;;;;;;;16.86;63.26;101180.56;4896987;29;20102;-91
2021/12/13 10:10:21;;;;;;;1.98;0.57;;;;;;;16.81;63.14;101182.72;4888865;29;20047;-92
2021/12/13 10:12:56;;;;;;;1.63;0.85;;;;;;;16.95;62.95;101185.13;4896141;29;20756;-91
2021/12/13 10:15:35;;;;;;;2.50;0.73;;;;;;;16.93;62.98;101186.22;4896844;29;20064;-92
2021/12/13 10:18:09;;;;;;;2.95;0.57;;;;;;;16.99;62.44;101183.06;4896378;29;20027;-91
2021/12/13 10:20:49;;;;;;;2.50;0.55;;;;;;;16.97;62.48;101196.44;4893741;29;20063;-91
2021/12/13 10:23:18;;;;;;;6.35;1.20;;;;;;;16.92;62.77;101197.78;4896605;29;20432;-92
2021/12/13 10:25:50;;;;;;;2.90;0.60;;;;;;;16.84;62.47;101203.72;4895791;29;20424;-91
2021/12/13 10:28:22;;;;;;;1.95;0.50;;;;;;;16.51;64.18;101205.47;4896829;29;20091;-91
2021/12/13 10:30:55;;;;;;;2.40;0.40;;;;;;;16.51;64.36;101197.53;4890267;29;20144;-90
2021/12/13 10:33:23;;;;;;;1.58;0.40;;;;;;;16.54;64.77;101191.94;4897206;29;20057;-90
2021/12/13 10:35:52;;;;;;;1.67;0.47;;;;;;;16.43;65.36;101194.66;4891952;29;20033;-90
2021/12/13 10:38:24;;;;;;;2.22;0.30;;;;;;;16.57;65.00;101186.41;4879812;29;20022;-90
2021/12/13 10:40:55;;;;;;;2.05;0.52;;;;;;;16.32;66.52;101198.13;4893864;29;20039;-89
2021/12/13 10:43:26;;;;;;;2.47;0.32;;;;;;;16.37;65.81;101195.97;4895305;29;20028;-90
2021/12/13 10:46:04;;;;;;;0.35;0.30;;;;;;;16.50;65.81;101190.50;4896163;29;20571;-90
2021/12/13 10:48:32;;;;;;;0.75;0.28;;;;;;;16.28;66.98;101195.88;4896103;29;20044;-89
2021/12/13 10:51:30;;;;;;;2.92;0.30;;;;;;;16.47;66.48;101193.44;4896582;29;20049;-89
2021/12/13 10:53:59;;;;;;;0.77;0.22;;;;;;;16.23;67.50;101198.84;4895564;29;20052;-91
2021/12/13 10:56:35;;;;;;;2.63;0.10;;;;;;;16.35;66.97;101194.38;4891204;29;20040;-90
2021/12/13 10:59:16;;;;;;;0.63;0.10;;;;;;;16.13;67.65;101195.25;4896744;29;20440;-89
2021/12/13 11:01:45;;;;;;;2.63;0.43;;;;;;;16.48;65.65;101195.09;4895429;29;20384;-91
2021/12/13 11:04:16;;;;;;;0.80;0.25;;;;;;;16.26;66.90;101204.75;4899184;29;20124;-90
2021/12/13 11:06:43;;;;;;;0.73;0.20;;;;;;;16.24;66.60;101200.56;4898465;29;20065;-92
2021/12/13 11:09:13;;;;;;;0.90;0.20;;;;;;;16.26;66.96;101202.09;4897476;29;20035;-92
2021/12/13 11:12:04;;;;;;;0.65;0.20;;;;;;;16.50;66.23;101200.28;4897437;29;20024;-95
2021/12/13 11:14:31;;;;;;;1.05;0.20;;;;;;;16.49;66.66;101198.59;4901037;29;20060;-92
2021/12/13 11:17:09;;;;;;;0.57;0.28;;;;;;;16.47;66.77;101198.72;4898861;29;20024;-89
2021/12/13 11:19:38;;;;;;;1.73;0.50;;;;;;;16.71;65.50;101203.84;4888585;29;20104;-91
2021/12/13 11:22:08;;;;;;;1.40;0.45;;;;;;;16.54;65.49;101207.84;4897068;29;20008;-93
2021/12/13 11:24:37;;;;;;;0.47;0.28;;;;;;;16.72;65.36;101205.53;4897290;29;20127;-93
2021/12/13 11:27:08;;;;;;;0.80;0.10;;;;;;;16.62;65.37;101202.78;4897906;29;20050;-95
2021/12/13 11:29:35;;;;;;;0.20;0.20;;;;;;;16.21;66.22;101211.38;4898194;29;20055;-93
2021/12/13 11:32:22;;;;;;;0.60;0.15;;;;;;;16.52;65.47;101204.50;4897852;29;20108;-93
2021/12/13 11:35:08;;;;;;;0.95;0.20;;;;;;;16.37;65.21;101195.09;4897967;29;20444;-96
2021/12/13 11:38:05;;;;;;;1.13;0.30;;;;;;;16.41;65.61;101201.84;4895935;29;20048;-88
2021/12/13 11:41:38;;;;;;;0.70;0.20;;;;;;;16.51;65.55;101201.94;4896991;29;20029;-88
2021/12/13 11:44:35;;;;;;;0.95;0.32;;;;;;;15.79;67.51;101197.91;4862009;29;20105;-88
2021/12/13 11:47:34;;;;;;;1.60;0.43;;;;;;;16.14;66.47;101208.38;4894799;29;20045;-89
2021/12/13 11:50:27;;;;;;;3.20;0.40;;;;;;;15.87;67.28;101203.44;4893107;29;20029;-88
2021/12/13 11:53:27;;;;;;;1.23;0.35;;;;;;;16.29;66.12;101197.53;4895769;29;20040;-87
2021/12/13 11:56:11;;;;;;;0.82;0.35;;;;;;;16.19;66.33;101203.59;4896922;29;20084;-93
2021/12/13 11:58:39;;;;;;;0.85;0.50;;;;;;;15.98;67.19;101199.97;4897337;29;20032;-92
2021/12/13 12:01:32;;;;;;;1.95;0.43;;;;;;;16.51;65.52;101186.91;4900765;29;20036;-89
2021/12/13 12:04:07;;;;;;;2.47;0.50;;;;;;;16.57;65.62;101193.53;4899927;29;20115;-89
2021/12/13 12:06:44;;;;;;;0.90;0.20;;;;;;;16.83;65.34;101191.44;4898604;29;20037;-90